map of MLN home
MLN - Airport
Location
City:  Melilla, Melilla, Spain
ICAO:GEML
IATA:MLN

Details
Type:Airport (Aerodrome, Airfield)
Latitude:3516'47"N (35.279817)
Longitude:257'23"W (-2.956255)
Datum:WGS 1984
Elevation:156 ft (48 m)
Variation:0.42W (WMM2015 magnetic declination)
0.11 annual change
Runways:1
Longest:4685 × 148 ft (1428 × 45 m), paved

Time
Time Zone:UTC+1 (DST+2)
Local Time:

Weather
METAR:GEML 220430Z 09006KT 030V120 3500 1500N BR BKN004 OVC008 16/16 Q1013
TAF:GEML 220200Z 2203/2303 09012KT 9999 SCT007 BKN015 TX20/2213Z TN15/2206Z
TEMPO 2203/2208 4000 BR BKN007 BKN012 PROB40
TEMPO 2212/2218 09015G25KT
BECMG 2219/2222 27008KT

Related Locations
Nearby:
Farthest:NZOX: 12330 mi / 19842 km
Okiwi Station, AUK, NZ

Find:

   beyond  
but within

Other Information
Maps:
NOTAMs:
Links:
Sources:

  
flag of Spain
flag of Melilla
  

Sectional Chart

Flight Planning
at skyvector.com

Satellite Image

Google Maps Satellite view

 

Copyright © 2004-2018 Karl L. Swartz. All rights reserved.
The Great Circle Mapper name and logo are trademarks of the Great Circle Mapper.
All other trademarks mentioned herein belong to their respective owners.
Please see credits for attibutions and further copyright information.

  Follow gcmap on Facebook Follow gcmap on Twitter Follow gcmap on Google+ GCmap on LinkedIn

hCard Microformat

Geo Microformat